sensor_id;sensor_type;location;lat;lon;timestamp;temperature;humidity
14370;DHT22;7268;50.792;0.252;2023-06-10T00:02:06;16.70;93.20
14370;DHT22;7268;50.792;0.252;2023-06-10T00:04:36;16.70;93.20
14370;DHT22;7268;50.792;0.252;2023-06-10T00:07:06;16.60;93.40
14370;DHT22;7268;50.792;0.252;2023-06-10T00:09:36;16.70;93.30
14370;DHT22;7268;50.792;0.252;2023-06-10T00:12:05;16.70;93.30
14370;DHT22;7268;50.792;0.252;2023-06-10T00:14:32;16.70;93.20
14370;DHT22;7268;50.792;0.252;2023-06-10T00:16:59;16.70;93.30
14370;DHT22;7268;50.792;0.252;2023-06-10T00:19:26;16.70;93.30
14370;DHT22;7268;50.792;0.252;2023-06-10T00:21:57;16.70;93.30
14370;DHT22;7268;50.792;0.252;2023-06-10T00:24:24;16.70;93.30
14370;DHT22;7268;50.792;0.252;2023-06-10T00:26:51;16.70;93.20
14370;DHT22;7268;50.792;0.252;2023-06-10T00:29:19;16.70;93.20
14370;DHT22;7268;50.792;0.252;2023-06-10T00:31:46;16.60;93.30
14370;DHT22;7268;50.792;0.252;2023-06-10T00:34:13;16.60;93.40
14370;DHT22;7268;50.792;0.252;2023-06-10T00:36:40;16.50;93.50
14370;DHT22;7268;50.792;0.252;2023-06-10T00:39:07;16.50;93.60
14370;DHT22;7268;50.792;0.252;2023-06-10T00:41:34;16.50;93.60
14370;DHT22;7268;50.792;0.252;2023-06-10T00:44:01;16.50;93.50
14370;DHT22;7268;50.792;0.252;2023-06-10T00:46:29;16.50;93.60
14370;DHT22;7268;50.792;0.252;2023-06-10T00:48:58;16.40;93.80
14370;DHT22;7268;50.792;0.252;2023-06-10T00:51:26;16.40;93.90
14370;DHT22;7268;50.792;0.252;2023-06-10T00:53:54;16.50;93.80
14370;DHT22;7268;50.792;0.252;2023-06-10T00:56:21;16.50;93.60
14370;DHT22;7268;50.792;0.252;2023-06-10T00:58:48;16.60;93.50
14370;DHT22;7268;50.792;0.252;2023-06-10T01:01:15;16.70;93.40
14370;DHT22;7268;50.792;0.252;2023-06-10T01:03:42;16.70;93.20
14370;DHT22;7268;50.792;0.252;2023-06-10T01:06:26;16.60;93.20
14370;DHT22;7268;50.792;0.252;2023-06-10T01:09:13;16.60;93.40
14370;DHT22;7268;50.792;0.252;2023-06-10T01:12:00;16.50;93.60
14370;DHT22;7268;50.792;0.252;2023-06-10T01:14:29;16.50;93.80
14370;DHT22;7268;50.792;0.252;2023-06-10T01:16:58;16.40;93.60
14370;DHT22;7268;50.792;0.252;2023-06-10T01:19:27;16.40;93.70
14370;DHT22;7268;50.792;0.252;2023-06-10T01:21:54;16.40;93.80
14370;DHT22;7268;50.792;0.252;2023-06-10T01:24:21;16.30;93.80
14370;DHT22;7268;50.792;0.252;2023-06-10T01:26:50;16.30;93.90
14370;DHT22;7268;50.792;0.252;2023-06-10T01:29:23;16.20;94.00
14370;DHT22;7268;50.792;0.252;2023-06-10T01:32:01;16.20;94.10
14370;DHT22;7268;50.792;0.252;2023-06-10T01:34:31;16.30;94.10
14370;DHT22;7268;50.792;0.252;2023-06-10T01:37:00;16.30;94.00
14370;DHT22;7268;50.792;0.252;2023-06-10T01:39:27;16.30;94.00
14370;DHT22;7268;50.792;0.252;2023-06-10T01:41:55;16.20;94.00
14370;DHT22;7268;50.792;0.252;2023-06-10T01:44:23;16.30;94.00
14370;DHT22;7268;50.792;0.252;2023-06-10T01:46:50;16.40;94.00
14370;DHT22;7268;50.792;0.252;2023-06-10T01:49:17;16.30;94.00
14370;DHT22;7268;50.792;0.252;2023-06-10T01:51:44;16.30;94.00
14370;DHT22;7268;50.792;0.252;2023-06-10T01:54:13;16.30;94.00
14370;DHT22;7268;50.792;0.252;2023-06-10T01:56:40;16.20;94.00
14370;DHT22;7268;50.792;0.252;2023-06-10T01:59:07;16.20;94.10
14370;DHT22;7268;50.792;0.252;2023-06-10T02:01:34;16.10;94.30
14370;DHT22;7268;50.792;0.252;2023-06-10T02:04:01;16.10;94.30
14370;DHT22;7268;50.792;0.252;2023-06-10T02:06:28;16.00;94.40
14370;DHT22;7268;50.792;0.252;2023-06-10T02:08:55;16.00;94.70
14370;DHT22;7268;50.792;0.252;2023-06-10T02:11:22;16.00;94.60
14370;DHT22;7268;50.792;0.252;2023-06-10T02:13:49;16.10;94.60
14370;DHT22;7268;50.792;0.252;2023-06-10T02:16:16;16.00;94.60
14370;DHT22;7268;50.792;0.252;2023-06-10T02:18:44;15.90;94.70
14370;DHT22;7268;50.792;0.252;2023-06-10T02:21:11;15.90;94.80
14370;DHT22;7268;50.792;0.252;2023-06-10T02:23:38;15.90;94.90
14370;DHT22;7268;50.792;0.252;2023-06-10T02:26:05;15.90;94.80
14370;DHT22;7268;50.792;0.252;2023-06-10T02:28:32;15.90;94.80
14370;DHT22;7268;50.792;0.252;2023-06-10T02:30:59;15.90;94.80
14370;DHT22;7268;50.792;0.252;2023-06-10T02:33:26;15.90;94.70
14370;DHT22;7268;50.792;0.252;2023-06-10T02:35:55;15.90;94.80
14370;DHT22;7268;50.792;0.252;2023-06-10T02:38:22;15.90;94.90
14370;DHT22;7268;50.792;0.252;2023-06-10T02:40:49;15.90;94.80
14370;DHT22;7268;50.792;0.252;2023-06-10T02:43:16;15.80;94.90
14370;DHT22;7268;50.792;0.252;2023-06-10T02:45:43;15.80;95.10
14370;DHT22;7268;50.792;0.252;2023-06-10T02:48:10;15.80;95.10
14370;DHT22;7268;50.792;0.252;2023-06-10T02:50:37;15.70;95.20
14370;DHT22;7268;50.792;0.252;2023-06-10T02:53:06;15.80;95.20
14370;DHT22;7268;50.792;0.252;2023-06-10T02:55:33;15.80;95.00
14370;DHT22;7268;50.792;0.252;2023-06-10T02:58:02;15.90;95.10
14370;DHT22;7268;50.792;0.252;2023-06-10T03:00:29;15.80;95.00
14370;DHT22;7268;50.792;0.252;2023-06-10T03:02:56;15.80;95.10
14370;DHT22;7268;50.792;0.252;2023-06-10T03:05:24;15.80;95.00
14370;DHT22;7268;50.792;0.252;2023-06-10T03:07:51;15.80;95.00
14370;DHT22;7268;50.792;0.252;2023-06-10T03:10:18;15.80;95.10
14370;DHT22;7268;50.792;0.252;2023-06-10T03:12:45;15.70;95.10
14370;DHT22;7268;50.792;0.252;2023-06-10T03:15:12;15.80;95.20
14370;DHT22;7268;50.792;0.252;2023-06-10T03:17:39;15.80;95.20
14370;DHT22;7268;50.792;0.252;2023-06-10T03:20:07;15.70;95.00
14370;DHT22;7268;50.792;0.252;2023-06-10T03:22:36;15.60;95.30
14370;DHT22;7268;50.792;0.252;2023-06-10T03:25:05;15.60;95.40
14370;DHT22;7268;50.792;0.252;2023-06-10T03:27:33;15.60;95.60
14370;DHT22;7268;50.792;0.252;2023-06-10T03:30:01;15.60;95.50
14370;DHT22;7268;50.792;0.252;2023-06-10T03:32:29;15.60;95.40
14370;DHT22;7268;50.792;0.252;2023-06-10T03:34:56;15.80;95.40
14370;DHT22;7268;50.792;0.252;2023-06-10T03:37:27;15.80;95.30
14370;DHT22;7268;50.792;0.252;2023-06-10T03:39:53;15.80;95.10
14370;DHT22;7268;50.792;0.252;2023-06-10T03:42:20;15.80;95.10
14370;DHT22;7268;50.792;0.252;2023-06-10T03:44:47;15.80;95.10
14370;DHT22;7268;50.792;0.252;2023-06-10T03:47:14;15.70;95.20
14370;DHT22;7268;50.792;0.252;2023-06-10T03:49:42;15.70;95.30
14370;DHT22;7268;50.792;0.252;2023-06-10T03:52:09;15.70;95.30
14370;DHT22;7268;50.792;0.252;2023-06-10T03:54:36;15.80;95.30
14370;DHT22;7268;50.792;0.252;2023-06-10T03:57:03;15.80;95.20
14370;DHT22;7268;50.792;0.252;2023-06-10T03:59:30;15.70;95.30
14370;DHT22;7268;50.792;0.252;2023-06-10T04:01:57;15.80;95.10
14370;DHT22;7268;50.792;0.252;2023-06-10T04:04:24;15.80;95.10
14370;DHT22;7268;50.792;0.252;2023-06-10T04:06:51;15.90;94.90
14370;DHT22;7268;50.792;0.252;2023-06-10T04:09:18;16.00;94.90
14370;DHT22;7268;50.792;0.252;2023-06-10T04:11:45;16.00;94.90
14370;DHT22;7268;50.792;0.252;2023-06-10T04:14:12;16.00;94.90
14370;DHT22;7268;50.792;0.252;2023-06-10T04:16:40;16.10;94.60
14370;DHT22;7268;50.792;0.252;2023-06-10T04:19:09;16.10;94.60
14370;DHT22;7268;50.792;0.252;2023-06-10T04:21:36;16.10;94.60
14370;DHT22;7268;50.792;0.252;2023-06-10T04:24:03;16.10;94.60
14370;DHT22;7268;50.792;0.252;2023-06-10T04:26:30;16.10;94.60
14370;DHT22;7268;50.792;0.252;2023-06-10T04:28:57;16.20;94.70
14370;DHT22;7268;50.792;0.252;2023-06-10T04:31:24;16.20;94.90
14370;DHT22;7268;50.792;0.252;2023-06-10T04:33:51;16.30;94.50
14370;DHT22;7268;50.792;0.252;2023-06-10T04:36:18;16.20;94.50
14370;DHT22;7268;50.792;0.252;2023-06-10T04:38:45;16.30;94.50
14370;DHT22;7268;50.792;0.252;2023-06-10T04:41:12;16.30;94.50
14370;DHT22;7268;50.792;0.252;2023-06-10T04:43:39;16.40;94.40
14370;DHT22;7268;50.792;0.252;2023-06-10T04:46:06;16.50;94.20
14370;DHT22;7268;50.792;0.252;2023-06-10T04:48:35;16.60;94.10
14370;DHT22;7268;50.792;0.252;2023-06-10T04:51:02;16.60;94.00
14370;DHT22;7268;50.792;0.252;2023-06-10T04:53:29;16.70;94.00
14370;DHT22;7268;50.792;0.252;2023-06-10T04:55:56;16.70;93.80
14370;DHT22;7268;50.792;0.252;2023-06-10T04:58:24;16.80;93.80
14370;DHT22;7268;50.792;0.252;2023-06-10T05:00:51;16.90;93.80
14370;DHT22;7268;50.792;0.252;2023-06-10T05:03:18;17.00;93.70
14370;DHT22;7268;50.792;0.252;2023-06-10T05:05:45;17.10;93.40
14370;DHT22;7268;50.792;0.252;2023-06-10T05:08:12;17.20;93.00
14370;DHT22;7268;50.792;0.252;2023-06-10T05:10:39;17.30;92.80
14370;DHT22;7268;50.792;0.252;2023-06-10T05:13:06;17.40;92.50
14370;DHT22;7268;50.792;0.252;2023-06-10T05:15:33;17.50;92.10
14370;DHT22;7268;50.792;0.252;2023-06-10T05:18:00;17.60;92.20
14370;DHT22;7268;50.792;0.252;2023-06-10T05:20:29;17.70;92.10
14370;DHT22;7268;50.792;0.252;2023-06-10T05:22:56;17.70;91.90
14370;DHT22;7268;50.792;0.252;2023-06-10T05:25:24;17.80;91.90
14370;DHT22;7268;50.792;0.252;2023-06-10T05:27:51;18.00;91.90
14370;DHT22;7268;50.792;0.252;2023-06-10T05:30:18;18.00;91.50
14370;DHT22;7268;50.792;0.252;2023-06-10T05:32:45;18.20;91.60
14370;DHT22;7268;50.792;0.252;2023-06-10T05:35:12;18.20;91.10
14370;DHT22;7268;50.792;0.252;2023-06-10T05:37:39;18.30;90.90
14370;DHT22;7268;50.792;0.252;2023-06-10T05:40:07;18.40;90.60
14370;DHT22;7268;50.792;0.252;2023-06-10T05:42:34;18.50;90.30
14370;DHT22;7268;50.792;0.252;2023-06-10T05:45:01;18.70;90.00
14370;DHT22;7268;50.792;0.252;2023-06-10T05:47:29;18.80;89.70
14370;DHT22;7268;50.792;0.252;2023-06-10T05:49:56;19.00;90.20
14370;DHT22;7268;50.792;0.252;2023-06-10T05:52:23;19.10;89.00
14370;DHT22;7268;50.792;0.252;2023-06-10T05:54:50;19.30;89.70
14370;DHT22;7268;50.792;0.252;2023-06-10T05:57:17;19.60;89.10
14370;DHT22;7268;50.792;0.252;2023-06-10T05:59:44;20.40;86.50
14370;DHT22;7268;50.792;0.252;2023-06-10T06:02:11;21.40;81.30
14370;DHT22;7268;50.792;0.252;2023-06-10T06:04:38;22.40;77.60
14370;DHT22;7268;50.792;0.252;2023-06-10T06:07:05;23.40;74.40
14370;DHT22;7268;50.792;0.252;2023-06-10T06:09:32;24.30;69.80
14370;DHT22;7268;50.792;0.252;2023-06-10T06:11:59;24.90;67.40
14370;DHT22;7268;50.792;0.252;2023-06-10T06:14:30;26.20;64.20
14370;DHT22;7268;50.792;0.252;2023-06-10T06:16:57;26.70;62.40
14370;DHT22;7268;50.792;0.252;2023-06-10T06:19:24;27.20;59.50
14370;DHT22;7268;50.792;0.252;2023-06-10T06:21:51;27.60;59.30
14370;DHT22;7268;50.792;0.252;2023-06-10T06:24:18;28.10;58.10
14370;DHT22;7268;50.792;0.252;2023-06-10T06:26:45;28.10;57.80
14370;DHT22;7268;50.792;0.252;2023-06-10T06:29:12;27.40;59.10
14370;DHT22;7268;50.792;0.252;2023-06-10T06:31:39;28.10;58.40
14370;DHT22;7268;50.792;0.252;2023-06-10T06:34:06;28.70;56.30
14370;DHT22;7268;50.792;0.252;2023-06-10T06:36:33;29.10;55.80
14370;DHT22;7268;50.792;0.252;2023-06-10T06:38:59;29.60;55.10
14370;DHT22;7268;50.792;0.252;2023-06-10T06:41:27;29.70;55.10
14370;DHT22;7268;50.792;0.252;2023-06-10T06:43:54;30.30;53.90
14370;DHT22;7268;50.792;0.252;2023-06-10T06:46:22;31.00;52.90
14370;DHT22;7268;50.792;0.252;2023-06-10T06:48:49;30.70;51.80
14370;DHT22;7268;50.792;0.252;2023-06-10T06:51:16;30.90;51.80
14370;DHT22;7268;50.792;0.252;2023-06-10T06:53:43;31.70;50.80
14370;DHT22;7268;50.792;0.252;2023-06-10T06:56:13;32.70;50.10
14370;DHT22;7268;50.792;0.252;2023-06-10T06:58:41;32.60;49.40
14370;DHT22;7268;50.792;0.252;2023-06-10T07:01:08;32.70;49.30
14370;DHT22;7268;50.792;0.252;2023-06-10T07:03:35;32.20;49.50
14370;DHT22;7268;50.792;0.252;2023-06-10T07:06:01;32.10;50.00
14370;DHT22;7268;50.792;0.252;2023-06-10T07:08:28;32.10;49.20
14370;DHT22;7268;50.792;0.252;2023-06-10T07:10:55;31.80;49.60
14370;DHT22;7268;50.792;0.252;2023-06-10T07:13:22;32.40;49.30
14370;DHT22;7268;50.792;0.252;2023-06-10T07:15:49;33.30;48.00
14370;DHT22;7268;50.792;0.252;2023-06-10T07:18:16;32.50;49.50
14370;DHT22;7268;50.792;0.252;2023-06-10T07:20:44;32.80;48.40
14370;DHT22;7268;50.792;0.252;2023-06-10T07:23:11;32.30;48.00
14370;DHT22;7268;50.792;0.252;2023-06-10T07:25:37;31.80;48.30
14370;DHT22;7268;50.792;0.252;2023-06-10T07:28:04;31.60;48.70
14370;DHT22;7268;50.792;0.252;2023-06-10T07:30:31;31.00;49.60
14370;DHT22;7268;50.792;0.252;2023-06-10T07:32:58;31.70;48.40
14370;DHT22;7268;50.792;0.252;2023-06-10T07:35:25;32.10;48.40
14370;DHT22;7268;50.792;0.252;2023-06-10T07:37:52;32.60;47.00
14370;DHT22;7268;50.792;0.252;2023-06-10T07:40:19;32.20;46.90
14370;DHT22;7268;50.792;0.252;2023-06-10T07:42:46;31.70;47.30
14370;DHT22;7268;50.792;0.252;2023-06-10T07:45:13;31.90;47.90
14370;DHT22;7268;50.792;0.252;2023-06-10T07:47:42;31.90;47.90
14370;DHT22;7268;50.792;0.252;2023-06-10T07:50:09;32.50;47.10
14370;DHT22;7268;50.792;0.252;2023-06-10T07:52:36;32.70;45.90
14370;DHT22;7268;50.792;0.252;2023-06-10T07:55:04;32.50;46.70
14370;DHT22;7268;50.792;0.252;2023-06-10T07:57:31;32.70;45.60
14370;DHT22;7268;50.792;0.252;2023-06-10T08:00:02;33.30;46.10
14370;DHT22;7268;50.792;0.252;2023-06-10T08:02:31;32.90;45.40
14370;DHT22;7268;50.792;0.252;2023-06-10T08:04:58;32.40;46.10
14370;DHT22;7268;50.792;0.252;2023-06-10T08:07:25;32.50;46.40
14370;DHT22;7268;50.792;0.252;2023-06-10T08:09:52;33.10;44.80
14370;DHT22;7268;50.792;0.252;2023-06-10T08:12:19;32.90;45.00
14370;DHT22;7268;50.792;0.252;2023-06-10T08:14:47;32.50;46.00
14370;DHT22;7268;50.792;0.252;2023-06-10T08:17:14;32.10;46.70
14370;DHT22;7268;50.792;0.252;2023-06-10T08:19:41;32.30;46.60
14370;DHT22;7268;50.792;0.252;2023-06-10T08:22:07;32.30;47.00
14370;DHT22;7268;50.792;0.252;2023-06-10T08:24:34;32.60;45.40
14370;DHT22;7268;50.792;0.252;2023-06-10T08:27:01;32.70;45.00
14370;DHT22;7268;50.792;0.252;2023-06-10T08:29:28;32.60;45.20
14370;DHT22;7268;50.792;0.252;2023-06-10T08:31:58;32.70;44.60
14370;DHT22;7268;50.792;0.252;2023-06-10T08:34:25;32.60;45.70
14370;DHT22;7268;50.792;0.252;2023-06-10T08:36:52;32.90;45.90
14370;DHT22;7268;50.792;0.252;2023-06-10T08:39:22;32.80;45.80
14370;DHT22;7268;50.792;0.252;2023-06-10T08:42:00;33.20;44.20
14370;DHT22;7268;50.792;0.252;2023-06-10T08:44:31;32.80;45.00
14370;DHT22;7268;50.792;0.252;2023-06-10T08:47:00;33.20;44.20
14370;DHT22;7268;50.792;0.252;2023-06-10T08:49:30;32.40;44.70
14370;DHT22;7268;50.792;0.252;2023-06-10T08:52:02;31.70;46.50
14370;DHT22;7268;50.792;0.252;2023-06-10T08:54:33;32.00;45.90
14370;DHT22;7268;50.792;0.252;2023-06-10T08:57:04;31.90;46.00
14370;DHT22;7268;50.792;0.252;2023-06-10T08:59:32;31.60;46.70
14370;DHT22;7268;50.792;0.252;2023-06-10T09:02:00;31.30;46.90
14370;DHT22;7268;50.792;0.252;2023-06-10T09:04:28;31.10;48.30
14370;DHT22;7268;50.792;0.252;2023-06-10T09:06:56;32.60;46.90
14370;DHT22;7268;50.792;0.252;2023-06-10T09:09:23;33.10;45.40
14370;DHT22;7268;50.792;0.252;2023-06-10T09:11:50;32.50;45.40
14370;DHT22;7268;50.792;0.252;2023-06-10T09:14:17;32.00;46.10
14370;DHT22;7268;50.792;0.252;2023-06-10T09:16:44;31.20;47.70
14370;DHT22;7268;50.792;0.252;2023-06-10T09:19:14;31.90;46.90
14370;DHT22;7268;50.792;0.252;2023-06-10T09:21:42;32.00;46.50
14370;DHT22;7268;50.792;0.252;2023-06-10T09:24:09;32.00;46.90
14370;DHT22;7268;50.792;0.252;2023-06-10T09:26:36;31.10;48.10
14370;DHT22;7268;50.792;0.252;2023-06-10T09:29:04;31.80;47.60
14370;DHT22;7268;50.792;0.252;2023-06-10T09:31:39;31.80;47.50
14370;DHT22;7268;50.792;0.252;2023-06-10T09:34:09;32.20;46.90
14370;DHT22;7268;50.792;0.252;2023-06-10T09:36:36;31.70;47.60
14370;DHT22;7268;50.792;0.252;2023-06-10T09:39:14;32.30;46.50
14370;DHT22;7268;50.792;0.252;2023-06-10T09:41:45;32.70;47.20
14370;DHT22;7268;50.792;0.252;2023-06-10T09:44:16;32.70;45.60
14370;DHT22;7268;50.792;0.252;2023-06-10T09:46:47;32.80;46.40
14370;DHT22;7268;50.792;0.252;2023-06-10T09:49:16;32.60;47.20
14370;DHT22;7268;50.792;0.252;2023-06-10T09:51:54;32.50;46.40
14370;DHT22;7268;50.792;0.252;2023-06-10T09:54:22;32.20;47.30
14370;DHT22;7268;50.792;0.252;2023-06-10T09:56:51;32.40;46.80
14370;DHT22;7268;50.792;0.252;2023-06-10T09:59:30;32.70;46.70
14370;DHT22;7268;50.792;0.252;2023-06-10T10:01:59;32.70;46.40
14370;DHT22;7268;50.792;0.252;2023-06-10T10:04:27;32.70;46.80
14370;DHT22;7268;50.792;0.252;2023-06-10T10:06:56;32.70;47.10
14370;DHT22;7268;50.792;0.252;2023-06-10T10:09:24;32.00;47.90
14370;DHT22;7268;50.792;0.252;2023-06-10T10:11:52;32.60;47.70
14370;DHT22;7268;50.792;0.252;2023-06-10T10:14:21;33.10;47.30
14370;DHT22;7268;50.792;0.252;2023-06-10T10:16:49;32.70;45.70
14370;DHT22;7268;50.792;0.252;2023-06-10T10:19:25;32.80;45.90
14370;DHT22;7268;50.792;0.252;2023-06-10T10:21:54;33.30;46.40
14370;DHT22;7268;50.792;0.252;2023-06-10T10:24:35;33.10;46.40
14370;DHT22;7268;50.792;0.252;2023-06-10T10:27:07;33.80;45.50
14370;DHT22;7268;50.792;0.252;2023-06-10T10:29:39;32.10;47.30
14370;DHT22;7268;50.792;0.252;2023-06-10T10:32:07;33.10;46.70
14370;DHT22;7268;50.792;0.252;2023-06-10T10:34:53;32.90;46.90
14370;DHT22;7268;50.792;0.252;2023-06-10T10:37:24;32.50;46.80
14370;DHT22;7268;50.792;0.252;2023-06-10T10:39:51;32.90;47.90
14370;DHT22;7268;50.792;0.252;2023-06-10T10:42:19;33.00;46.80
14370;DHT22;7268;50.792;0.252;2023-06-10T10:44:47;33.00;46.40
14370;DHT22;7268;50.792;0.252;2023-06-10T10:47:16;32.90;46.80
14370;DHT22;7268;50.792;0.252;2023-06-10T10:49:46;33.10;47.40
14370;DHT22;7268;50.792;0.252;2023-06-10T10:52:15;33.70;46.90
14370;DHT22;7268;50.792;0.252;2023-06-10T10:54:46;34.20;46.00
14370;DHT22;7268;50.792;0.252;2023-06-10T10:57:23;33.80;46.10
14370;DHT22;7268;50.792;0.252;2023-06-10T11:00:00;33.40;47.50
14370;DHT22;7268;50.792;0.252;2023-06-10T11:02:43;33.90;45.50
14370;DHT22;7268;50.792;0.252;2023-06-10T11:05:16;34.40;45.60
14370;DHT22;7268;50.792;0.252;2023-06-10T11:07:54;34.00;46.40
14370;DHT22;7268;50.792;0.252;2023-06-10T11:10:36;33.30;46.50
14370;DHT22;7268;50.792;0.252;2023-06-10T11:13:13;33.50;47.30
14370;DHT22;7268;50.792;0.252;2023-06-10T11:15:50;33.70;46.30
14370;DHT22;7268;50.792;0.252;2023-06-10T11:18:28;33.40;47.50
14370;DHT22;7268;50.792;0.252;2023-06-10T11:21:04;34.00;45.80
14370;DHT22;7268;50.792;0.252;2023-06-10T11:23:38;33.10;47.40
14370;DHT22;7268;50.792;0.252;2023-06-10T11:26:29;32.90;47.50
14370;DHT22;7268;50.792;0.252;2023-06-10T11:29:03;33.30;47.00
14370;DHT22;7268;50.792;0.252;2023-06-10T11:31:39;32.70;47.40
14370;DHT22;7268;50.792;0.252;2023-06-10T11:34:07;32.40;48.20
14370;DHT22;7268;50.792;0.252;2023-06-10T11:36:38;32.40;49.00
14370;DHT22;7268;50.792;0.252;2023-06-10T11:39:07;32.80;48.70
14370;DHT22;7268;50.792;0.252;2023-06-10T11:41:35;32.40;48.20
14370;DHT22;7268;50.792;0.252;2023-06-10T11:44:06;32.10;48.80
14370;DHT22;7268;50.792;0.252;2023-06-10T11:46:34;33.20;48.40
14370;DHT22;7268;50.792;0.252;2023-06-10T11:49:03;32.70;47.70
14370;DHT22;7268;50.792;0.252;2023-06-10T11:51:33;32.60;47.80
14370;DHT22;7268;50.792;0.252;2023-06-10T11:54:00;32.50;48.20
14370;DHT22;7268;50.792;0.252;2023-06-10T11:56:30;32.90;47.90
14370;DHT22;7268;50.792;0.252;2023-06-10T11:59:05;32.50;49.10
14370;DHT22;7268;50.792;0.252;2023-06-10T12:01:35;32.20;49.30
14370;DHT22;7268;50.792;0.252;2023-06-10T12:04:08;32.00;50.00
14370;DHT22;7268;50.792;0.252;2023-06-10T12:06:42;32.80;49.60
14370;DHT22;7268;50.792;0.252;2023-06-10T12:09:20;32.50;48.40
14370;DHT22;7268;50.792;0.252;2023-06-10T12:12:05;31.50;50.30
14370;DHT22;7268;50.792;0.252;2023-06-10T12:15:00;31.30;51.50
14370;DHT22;7268;50.792;0.252;2023-06-10T12:20:07;31.70;50.70
14370;DHT22;7268;50.792;0.252;2023-06-10T12:22:38;31.80;50.00
14370;DHT22;7268;50.792;0.252;2023-06-10T12:25:09;31.00;50.80
14370;DHT22;7268;50.792;0.252;2023-06-10T12:27:39;31.10;52.50
14370;DHT22;7268;50.792;0.252;2023-06-10T12:30:07;31.10;52.00
14370;DHT22;7268;50.792;0.252;2023-06-10T12:32:44;30.70;52.00
14370;DHT22;7268;50.792;0.252;2023-06-10T12:35:13;30.30;52.40
14370;DHT22;7268;50.792;0.252;2023-06-10T12:37:41;30.00;53.20
14370;DHT22;7268;50.792;0.252;2023-06-10T12:40:10;30.00;53.80
14370;DHT22;7268;50.792;0.252;2023-06-10T12:42:38;30.50;52.60
14370;DHT22;7268;50.792;0.252;2023-06-10T12:45:05;30.40;52.70
14370;DHT22;7268;50.792;0.252;2023-06-10T12:47:37;30.20;53.40
14370;DHT22;7268;50.792;0.252;2023-06-10T12:50:07;30.10;53.40
14370;DHT22;7268;50.792;0.252;2023-06-10T12:52:34;30.30;54.00
14370;DHT22;7268;50.792;0.252;2023-06-10T12:55:01;30.00;52.60
14370;DHT22;7268;50.792;0.252;2023-06-10T12:57:29;29.40;54.50
14370;DHT22;7268;50.792;0.252;2023-06-10T12:59:56;29.20;55.80
14370;DHT22;7268;50.792;0.252;2023-06-10T13:02:30;29.00;54.80
14370;DHT22;7268;50.792;0.252;2023-06-10T13:04:58;28.80;55.60
14370;DHT22;7268;50.792;0.252;2023-06-10T13:07:25;28.90;57.30
14370;DHT22;7268;50.792;0.252;2023-06-10T13:09:53;29.10;57.90
14370;DHT22;7268;50.792;0.252;2023-06-10T13:12:20;29.20;56.50
14370;DHT22;7268;50.792;0.252;2023-06-10T13:15:07;29.20;54.80
14370;DHT22;7268;50.792;0.252;2023-06-10T13:17:35;29.20;55.20
14370;DHT22;7268;50.792;0.252;2023-06-10T13:20:06;29.40;55.80
14370;DHT22;7268;50.792;0.252;2023-06-10T13:22:34;29.10;56.30
14370;DHT22;7268;50.792;0.252;2023-06-10T13:25:03;29.10;56.30
14370;DHT22;7268;50.792;0.252;2023-06-10T13:27:31;29.20;56.80
14370;DHT22;7268;50.792;0.252;2023-06-10T13:29:58;29.10;55.90
14370;DHT22;7268;50.792;0.252;2023-06-10T13:32:25;28.80;56.10
14370;DHT22;7268;50.792;0.252;2023-06-10T13:34:52;28.70;57.90
14370;DHT22;7268;50.792;0.252;2023-06-10T13:37:20;28.60;56.80
14370;DHT22;7268;50.792;0.252;2023-06-10T13:39:46;28.30;57.20
14370;DHT22;7268;50.792;0.252;2023-06-10T13:42:15;28.00;57.60
14370;DHT22;7268;50.792;0.252;2023-06-10T13:44:42;28.20;57.30
14370;DHT22;7268;50.792;0.252;2023-06-10T13:47:09;28.30;56.00
14370;DHT22;7268;50.792;0.252;2023-06-10T13:49:36;28.20;56.00
14370;DHT22;7268;50.792;0.252;2023-06-10T13:52:04;28.20;57.30
14370;DHT22;7268;50.792;0.252;2023-06-10T13:54:31;28.20;57.00
14370;DHT22;7268;50.792;0.252;2023-06-10T13:56:58;28.30;56.70
14370;DHT22;7268;50.792;0.252;2023-06-10T13:59:26;28.10;56.40
14370;DHT22;7268;50.792;0.252;2023-06-10T14:01:53;28.10;57.00
14370;DHT22;7268;50.792;0.252;2023-06-10T14:04:21;27.90;57.50
14370;DHT22;7268;50.792;0.252;2023-06-10T14:06:48;28.00;58.90
14370;DHT22;7268;50.792;0.252;2023-06-10T14:09:15;28.30;58.00
14370;DHT22;7268;50.792;0.252;2023-06-10T14:11:43;28.10;57.90
14370;DHT22;7268;50.792;0.252;2023-06-10T14:14:10;28.00;58.30
14370;DHT22;7268;50.792;0.252;2023-06-10T14:16:37;28.00;57.90
14370;DHT22;7268;50.792;0.252;2023-06-10T14:19:08;27.90;57.50
14370;DHT22;7268;50.792;0.252;2023-06-10T14:21:35;27.70;58.50
14370;DHT22;7268;50.792;0.252;2023-06-10T14:24:02;27.60;58.30
14370;DHT22;7268;50.792;0.252;2023-06-10T14:26:29;27.40;58.00
14370;DHT22;7268;50.792;0.252;2023-06-10T14:28:57;27.50;59.40
14370;DHT22;7268;50.792;0.252;2023-06-10T14:31:24;27.50;58.80
14370;DHT22;7268;50.792;0.252;2023-06-10T14:33:51;27.20;59.20
14370;DHT22;7268;50.792;0.252;2023-06-10T14:36:18;27.40;58.80
14370;DHT22;7268;50.792;0.252;2023-06-10T14:38:45;27.20;59.20
14370;DHT22;7268;50.792;0.252;2023-06-10T14:41:13;27.20;59.80
14370;DHT22;7268;50.792;0.252;2023-06-10T14:43:40;27.40;59.30
14370;DHT22;7268;50.792;0.252;2023-06-10T14:46:07;27.20;59.70
14370;DHT22;7268;50.792;0.252;2023-06-10T14:48:33;27.30;59.60
14370;DHT22;7268;50.792;0.252;2023-06-10T14:51:01;27.50;59.90
14370;DHT22;7268;50.792;0.252;2023-06-10T14:53:27;27.50;59.00
14370;DHT22;7268;50.792;0.252;2023-06-10T14:55:54;27.40;58.80
14370;DHT22;7268;50.792;0.252;2023-06-10T14:58:21;27.70;59.20
14370;DHT22;7268;50.792;0.252;2023-06-10T15:00:48;27.70;58.80
14370;DHT22;7268;50.792;0.252;2023-06-10T15:03:15;27.50;58.90
14370;DHT22;7268;50.792;0.252;2023-06-10T15:05:42;27.40;59.80
14370;DHT22;7268;50.792;0.252;2023-06-10T15:08:09;27.50;59.20
14370;DHT22;7268;50.792;0.252;2023-06-10T15:10:36;27.40;59.20
14370;DHT22;7268;50.792;0.252;2023-06-10T15:13:03;27.20;58.50
14370;DHT22;7268;50.792;0.252;2023-06-10T15:15:30;27.20;59.20
14370;DHT22;7268;50.792;0.252;2023-06-10T15:17:57;27.30;58.50
14370;DHT22;7268;50.792;0.252;2023-06-10T15:20:23;27.30;58.60
14370;DHT22;7268;50.792;0.252;2023-06-10T15:22:50;27.30;59.20
14370;DHT22;7268;50.792;0.252;2023-06-10T15:25:17;27.30;58.50
14370;DHT22;7268;50.792;0.252;2023-06-10T15:27:56;27.40;59.70
14370;DHT22;7268;50.792;0.252;2023-06-10T15:30:23;27.70;59.30
14370;DHT22;7268;50.792;0.252;2023-06-10T15:32:50;27.90;57.80
14370;DHT22;7268;50.792;0.252;2023-06-10T15:35:17;27.90;58.00
14370;DHT22;7268;50.792;0.252;2023-06-10T15:37:45;27.80;57.20
14370;DHT22;7268;50.792;0.252;2023-06-10T15:40:12;27.70;57.20
14370;DHT22;7268;50.792;0.252;2023-06-10T15:42:39;27.70;57.60
14370;DHT22;7268;50.792;0.252;2023-06-10T15:45:06;27.70;58.80
14370;DHT22;7268;50.792;0.252;2023-06-10T15:47:34;27.70;57.60
14370;DHT22;7268;50.792;0.252;2023-06-10T15:50:01;27.60;57.40
14370;DHT22;7268;50.792;0.252;2023-06-10T15:52:28;27.60;57.80
14370;DHT22;7268;50.792;0.252;2023-06-10T15:54:55;27.50;57.90
14370;DHT22;7268;50.792;0.252;2023-06-10T15:57:22;27.40;57.90